ATL weather

Hartsfield Jackson Atlanta International Airport
Atlanta, Georgia, United States

Public forecast

Using degrees Fahrenheit for public forecast. Weather courtesy of forecast.io.

METAR (pilot weather report)

Retrieved 2019/03/24 22:52 UTC (19 minutes ago):

KATL 242252Z 20005KT 10SM FEW200 SCT250 23/03 A3013 RMK AO2 SLP200 T02280028

TAF (pilot weather forecast)

Retrieved 2019/03/24 18:42 UTC (4 hours ago):

TAF KATL 241740Z 2418/2524 20009G18KT P6SM BKN250 FM250100 21004KT P6SM SCT200 FM250400 20004KT P6SM BKN080 FM251300 23007KT P6SM VCSH BKN050 FM251800 25010KT P6SM VCSH SCT025 BKN040 PROB30 2518/2523 6SM -TSRA BKN025CB FM252300 29007KT P6SM -RA SCT025 BKN040